Time,TemperatureF,DewpointF,PressureIn,WindDirection,WindDirectionDegrees,WindSpeedMPH,WindSpeedGustMPH,Humidity,HourlyPrecipIn,Conditions,Clouds,dailyrainin,SolarRadiationWatts/m^2,SoftwareType,DateUTC
2013-05-23 00:00:00,55.1,53.1,29.76,SSE,166,0.0,0.0,93,0.00,,,0.04,0,Wunderground v.1.15,2013-05-23 05:00:00,
2013-05-23 00:05:00,55.1,53.1,29.76,NE,44,1.0,1.0,93,0.00,,,0.00,0,Wunderground v.1.15,2013-05-23 05:05:00,
2013-05-23 00:10:00,55.1,53.1,29.76,NE,44,0.0,0.0,93,0.00,,,0.00,0,Wunderground v.1.15,2013-05-23 05:10:00,
2013-05-23 00:20:00,55.0,53.0,29.77,NE,44,0.0,0.0,93,0.00,,,0.00,0,Wunderground v.1.15,2013-05-23 05:20:00,
2013-05-23 00:25:00,55.0,53.0,29.76,NE,44,0.0,0.0,93,0.00,,,0.00,0,Wunderground v.1.15,2013-05-23 05:25:00,
2013-05-23 00:30:00,55.2,53.2,29.77,NE,44,0.0,0.0,93,0.00,,,0.00,0,Wunderground v.1.15,2013-05-23 05:30:00,
2013-05-23 00:40:00,55.0,53.0,29.77,East,88,1.0,1.0,93,0.00,,,0.00,0,Wunderground v.1.15,2013-05-23 05:40:00,
2013-05-23 00:45:00,55.0,53.0,29.77,East,88,0.0,1.0,93,0.00,,,0.00,0,Wunderground v.1.15,2013-05-23 05:45:00,
2013-05-23 00:50:00,54.9,52.6,29.77,East,88,0.0,2.0,92,0.00,,,0.00,0,Wunderground v.1.15,2013-05-23 05:50:00,
2013-05-23 01:00:00,54.9,52.9,29.77,East,88,0.0,0.0,93,0.00,,,0.00,0,Wunderground v.1.15,2013-05-23 06:00:00,
2013-05-23 01:05:00,54.8,52.8,29.77,East,88,0.0,0.0,93,0.00,,,0.00,0,Wunderground v.1.15,2013-05-23 06:05:00,
2013-05-23 01:15:00,54.8,52.8,29.77,East,88,0.0,0.0,93,0.00,,,0.00,0,Wunderground v.1.15,2013-05-23 06:15:00,
2013-05-23 01:20:00,54.7,52.7,29.77,East,88,0.0,0.0,93,0.00,,,0.00,0,Wunderground v.1.15,2013-05-23 06:20:00,
2013-05-23 01:30:00,54.9,52.9,29.77,East,88,0.0,0.0,93,0.00,,,0.00,0,Wunderground v.1.15,2013-05-23 06:30:00,
2013-05-23 01:40:00,54.6,52.9,29.78,East,88,0.0,0.0,94,0.00,,,0.00,0,Wunderground v.1.15,2013-05-23 06:40:00,
2013-05-23 01:50:00,54.5,53.1,29.78,East,88,0.0,0.0,95,0.00,,,0.01,0,Wunderground v.1.15,2013-05-23 06:50:00,
2013-05-23 02:00:00,54.7,53.3,29.78,East,88,0.0,0.0,95,0.00,,,0.01,0,Wunderground v.1.15,2013-05-23 07:00:00,
2013-05-23 02:05:00,54.7,53.3,29.78,East,88,0.0,0.0,95,0.00,,,0.01,0,Wunderground v.1.15,2013-05-23 07:05:00,
2013-05-23 02:15:00,54.5,53.1,29.78,East,82,0.0,3.0,95,0.00,,,0.01,0,Wunderground v.1.15,2013-05-23 07:15:00,
2013-05-23 02:25:00,54.5,53.1,29.79,NNE,28,3.0,3.0,95,0.00,,,0.02,0,Wunderground v.1.15,2013-05-23 07:25:00,
2013-05-23 02:35:00,54.5,53.1,29.79,NNE,15,2.0,3.0,95,0.00,,,0.02,0,Wunderground v.1.15,2013-05-23 07:35:00,
2013-05-23 02:45:00,54.4,53.0,29.79,North,5,1.0,4.0,95,0.00,,,0.03,0,Wunderground v.1.15,2013-05-23 07:45:00,
2013-05-23 02:50:00,54.1,52.7,29.80,NNW,331,3.0,5.0,95,0.00,,,0.03,0,Wunderground v.1.15,2013-05-23 07:50:00,
2013-05-23 03:00:00,53.6,51.9,29.80,North,5,7.0,7.0,94,0.00,,,0.03,0,Wunderground v.1.15,2013-05-23 08:00:00,
2013-05-23 03:05:00,53.6,51.9,29.80,North,360,6.0,7.0,94,0.00,,,0.03,0,Wunderground v.1.15,2013-05-23 08:05:00,
2013-05-23 03:15:00,53.5,51.8,29.81,North,351,3.0,5.0,94,0.00,,,0.03,0,Wunderground v.1.15,2013-05-23 08:15:00,
2013-05-23 03:20:00,53.4,51.7,29.81,NNE,17,3.0,5.0,94,0.00,,,0.04,0,Wunderground v.1.15,2013-05-23 08:20:00,
2013-05-23 03:30:00,53.3,51.6,29.81,ENE,61,3.0,3.0,94,0.00,,,0.04,0,Wunderground v.1.15,2013-05-23 08:30:00,
2013-05-23 03:40:00,53.2,51.5,29.82,North,11,2.0,3.0,94,0.00,,,0.04,0,Wunderground v.1.15,2013-05-23 08:40:00,
2013-05-23 03:50:00,53.1,51.4,29.82,NNE,12,4.0,4.0,94,0.00,,,0.04,0,Wunderground v.1.15,2013-05-23 08:50:00,
2013-05-23 04:00:00,53.0,51.3,29.82,NNE,33,4.0,4.0,94,0.00,,,0.04,0,Wunderground v.1.15,2013-05-23 09:00:00,
2013-05-23 04:10:00,52.8,51.1,29.83,NNE,22,4.0,4.0,94,0.00,,,0.04,0,Wunderground v.1.15,2013-05-23 09:10:00,
2013-05-23 04:15:00,52.7,51.0,29.83,NNE,30,4.0,4.0,94,0.00,,,0.04,0,Wunderground v.1.15,2013-05-23 09:15:00,
2013-05-23 04:25:00,52.9,51.2,29.83,NNE,22,3.0,4.0,94,0.00,,,0.05,0,Wunderground v.1.15,2013-05-23 09:25:00,
2013-05-23 04:35:00,52.9,51.2,29.84,NNE,21,2.0,3.0,94,0.00,,,0.05,0,Wunderground v.1.15,2013-05-23 09:35:00,
2013-05-23 04:45:00,52.8,51.4,29.84,North,5,3.0,5.0,95,0.00,,,0.06,0,Wunderground v.1.15,2013-05-23 09:45:00,
2013-05-23 04:50:00,52.8,51.4,29.84,North,11,2.0,2.0,95,0.07,,,0.07,0,Wunderground v.1.15,2013-05-23 09:50:00,
2013-05-23 05:00:00,52.8,51.4,29.85,NNE,17,0.0,0.0,95,0.08,,,0.09,0,Wunderground v.1.15,2013-05-23 10:00:00,
2013-05-23 05:05:00,52.7,51.3,29.85,East,84,0.0,0.0,95,0.08,,,0.09,0,Wunderground v.1.15,2013-05-23 10:05:00,
2013-05-23 05:15:00,51.9,50.5,29.86,NE,53,2.0,2.0,95,0.12,,,0.11,0,Wunderground v.1.15,2013-05-23 10:15:00,
2013-05-23 05:20:00,51.9,50.5,29.86,North,11,2.0,2.0,95,0.13,,,0.12,0,Wunderground v.1.15,2013-05-23 10:20:00,
2013-05-23 05:30:00,51.6,50.2,29.86,NE,41,6.0,6.0,95,0.07,,,0.13,0,Wunderground v.1.15,2013-05-23 10:30:00,
2013-05-23 05:40:00,51.5,49.8,29.87,NE,51,6.0,6.0,94,0.00,,,0.13,0,Wunderground v.1.15,2013-05-23 10:40:00,
2013-05-23 05:50:00,51.5,49.8,29.87,NE,44,6.0,6.0,94,0.00,,,0.13,7,Wunderground v.1.15,2013-05-23 10:50:00,
2013-05-23 06:00:00,51.4,49.4,29.88,ENE,58,6.0,6.0,93,0.00,,,0.13,0,Wunderground v.1.15,2013-05-23 11:00:00,
2013-05-23 06:05:00,51.3,49.3,29.89,NNE,25,4.0,6.0,93,0.00,,,0.13,5,Wunderground v.1.15,2013-05-23 11:05:00,
2013-05-23 06:15:00,51.1,49.1,29.89,North,5,4.0,6.0,93,0.00,,,0.13,5,Wunderground v.1.15,2013-05-23 11:15:00,
2013-05-23 06:20:00,51.3,49.3,29.90,NNE,17,5.0,13.0,93,0.00,,,0.13,9,Wunderground v.1.15,2013-05-23 11:20:00,
2013-05-23 06:30:00,51.0,48.8,29.90,North,5,8.0,8.0,92,0.00,,,0.13,23,Wunderground v.1.15,2013-05-23 11:30:00,
2013-05-23 06:40:00,50.8,48.6,29.91,NNE,16,7.0,8.0,92,0.00,,,0.13,21,Wunderground v.1.15,2013-05-23 11:40:00,
2013-05-23 06:50:00,50.6,48.7,29.91,North,5,5.0,5.0,93,0.00,,,0.13,28,Wunderground v.1.15,2013-05-23 11:50:00,
2013-05-23 07:00:00,50.6,48.7,29.92,NNW,348,7.0,7.0,93,0.00,,,0.13,23,Wunderground v.1.15,2013-05-23 12:00:00,
2013-05-23 07:10:00,50.6,48.7,29.92,NNE,19,5.0,5.0,93,0.00,,,0.13,25,Wunderground v.1.15,2013-05-23 12:10:00,
2013-05-23 07:15:00,50.4,48.5,29.93,North,5,8.0,12.0,93,0.00,,,0.13,26,Wunderground v.1.15,2013-05-23 12:15:00,
2013-05-23 07:20:00,50.3,48.4,29.94,North,355,9.0,9.0,93,0.00,,,0.13,21,Wunderground v.1.15,2013-05-23 12:20:00,
2013-05-23 07:30:00,50.0,47.8,29.94,North,351,9.0,9.0,92,0.00,,,0.13,44,Wunderground v.1.15,2013-05-23 12:30:00,
2013-05-23 07:40:00,49.9,47.4,29.95,North,5,10.0,10.0,91,0.00,,,0.13,33,Wunderground v.1.15,2013-05-23 12:40:00,
2013-05-23 07:50:00,49.8,47.3,29.96,North,5,9.0,10.0,91,0.00,,,0.13,25,Wunderground v.1.15,2013-05-23 12:50:00,
2013-05-23 08:00:00,49.8,47.3,29.96,NNE,13,8.0,8.0,91,0.00,,,0.13,35,Wunderground v.1.15,2013-05-23 13:00:00,
2013-05-23 08:10:00,49.9,47.7,29.97,North,355,9.0,11.0,92,0.00,,,0.14,63,Wunderground v.1.15,2013-05-23 13:10:00,
2013-05-23 08:15:00,49.5,47.0,29.97,NNW,348,9.0,11.0,91,0.00,,,0.14,69,Wunderground v.1.15,2013-05-23 13:15:00,
2013-05-23 08:20:00,49.4,47.2,29.97,NNE,19,9.0,9.0,92,0.00,,,0.14,65,Wunderground v.1.15,2013-05-23 13:20:00,
2013-05-23 08:30:00,49.1,46.9,29.98,North,355,10.0,10.0,92,0.00,,,0.14,109,Wunderground v.1.15,2013-05-23 13:30:00,
2013-05-23 08:40:00,49.0,46.8,29.99,North,355,9.0,9.0,92,0.00,,,0.14,155,Wunderground v.1.15,2013-05-23 13:40:00,
2013-05-23 08:50:00,48.8,46.3,29.99,NNW,343,11.0,11.0,91,0.00,,,0.14,105,Wunderground v.1.15,2013-05-23 13:50:00,
2013-05-23 09:00:00,48.7,45.9,30.00,North,360,10.0,16.0,90,0.00,,,0.14,107,Wunderground v.1.15,2013-05-23 14:00:00,
2013-05-23 09:05:00,48.7,45.9,30.00,North,355,11.0,16.0,90,0.00,,,0.14,149,Wunderground v.1.15,2013-05-23 14:05:00,
2013-05-23 09:15:00,48.7,45.9,30.01,North,9,11.0,13.0,90,0.00,,,0.14,195,Wunderground v.1.15,2013-05-23 14:15:00,
2013-05-23 09:25:00,48.6,45.8,30.01,NE,39,11.0,11.0,90,0.00,,,0.14,185,Wunderground v.1.15,2013-05-23 14:25:00,
2013-05-23 09:30:00,48.6,45.5,30.01,NNW,343,11.0,11.0,89,0.00,,,0.14,149,Wunderground v.1.15,2013-05-23 14:30:00,
2013-05-23 09:35:00,48.6,45.5,30.02,North,355,10.0,11.0,89,0.00,,,0.14,123,Wunderground v.1.15,2013-05-23 14:35:00,
2013-05-23 09:40:00,48.7,46.2,30.02,North,350,8.0,13.0,91,0.00,,,0.14,134,Wunderground v.1.15,2013-05-23 14:40:00,
2013-05-23 09:45:00,48.4,45.3,30.02,NNE,17,9.0,17.0,89,0.00,,,0.14,109,Wunderground v.1.15,2013-05-23 14:45:00,
2013-05-23 09:55:00,48.1,45.3,30.03,NNE,24,11.0,13.0,90,0.00,,,0.14,105,Wunderground v.1.15,2013-05-23 14:55:00,
2013-05-23 10:00:00,47.7,44.9,30.04,North,350,12.0,13.0,90,0.00,,,0.14,134,Wunderground v.1.15,2013-05-23 15:00:00,
2013-05-23 10:10:00,47.3,44.5,30.04,NNW,346,11.0,11.0,90,0.00,,,0.14,188,Wunderground v.1.15,2013-05-23 15:10:00,
2013-05-23 10:15:00,47.2,44.4,30.04,NNW,348,10.0,11.0,90,0.00,,,0.14,190,Wunderground v.1.15,2013-05-23 15:15:00,
2013-05-23 10:20:00,47.6,45.1,30.05,NNE,28,9.0,18.0,91,0.00,,,0.14,322,Wunderground v.1.15,2013-05-23 15:20:00,
2013-05-23 10:30:00,47.4,44.3,30.05,NNW,342,12.0,12.0,89,0.00,,,0.14,190,Wunderground v.1.15,2013-05-23 15:30:00,
2013-05-23 10:40:00,47.4,44.0,30.05,North,360,10.0,10.0,88,0.00,,,0.14,236,Wunderground v.1.15,2013-05-23 15:40:00,
2013-05-23 10:45:00,47.7,44.6,30.06,NE,37,10.0,10.0,89,0.00,,,0.14,301,Wunderground v.1.15,2013-05-23 15:45:00,
2013-05-23 10:55:00,47.9,44.5,30.06,North,360,10.0,10.0,88,0.00,,,0.14,192,Wunderground v.1.15,2013-05-23 15:55:00,
2013-05-23 11:00:00,48.1,44.7,30.06,North,355,10.0,12.0,88,0.00,,,0.14,192,Wunderground v.1.15,2013-05-23 16:00:00,
2013-05-23 11:05:00,47.8,44.1,30.06,NNE,30,11.0,12.0,87,0.00,,,0.14,188,Wunderground v.1.15,2013-05-23 16:05:00,
2013-05-23 11:15:00,47.8,44.1,30.07,NNW,344,11.0,18.0,87,0.00,,,0.14,251,Wunderground v.1.15,2013-05-23 16:15:00,
2013-05-23 11:20:00,47.7,44.0,30.07,NE,41,12.0,12.0,87,0.00,,,0.14,251,Wunderground v.1.15,2013-05-23 16:20:00,
2013-05-23 11:30:00,47.7,44.0,30.08,North,355,12.0,12.0,87,0.00,,,0.14,239,Wunderground v.1.15,2013-05-23 16:30:00,
2013-05-23 11:40:00,48.2,44.2,30.08,North,5,10.0,10.0,86,0.00,,,0.14,374,Wunderground v.1.15,2013-05-23 16:40:00,
2013-05-23 11:50:00,48.4,44.4,30.09,NNE,14,11.0,11.0,86,0.00,,,0.14,343,Wunderground v.1.15,2013-05-23 16:50:00,
2013-05-23 12:00:00,48.6,44.3,30.09,North,5,10.0,10.0,85,0.00,,,0.14,359,Wunderground v.1.15,2013-05-23 17:00:00,
2013-05-23 12:05:00,48.8,44.2,30.09,North,9,10.0,11.0,84,0.00,,,0.14,380,Wunderground v.1.15,2013-05-23 17:05:00,
2013-05-23 12:15:00,49.0,44.1,30.09,NE,38,10.0,10.0,83,0.00,,,0.14,283,Wunderground v.1.15,2013-05-23 17:15:00,
2013-05-23 12:25:00,49.1,44.2,30.09,North,349,11.0,16.0,83,0.00,,,0.14,584,Wunderground v.1.15,2013-05-23 17:25:00,
2013-05-23 12:35:00,49.5,43.9,30.10,NNE,12,12.0,12.0,81,0.00,,,0.14,425,Wunderground v.1.15,2013-05-23 17:35:00,
2013-05-23 12:45:00,49.9,44.6,30.10,North,360,11.0,14.0,82,0.00,,,0.14,396,Wunderground v.1.15,2013-05-23 17:45:00,
2013-05-23 12:55:00,50.1,44.2,30.11,NE,34,9.0,14.0,80,0.00,,,0.14,406,Wunderground v.1.15,2013-05-23 17:55:00,
2013-05-23 13:00:00,50.1,44.5,30.11,North,360,9.0,11.0,81,0.00,,,0.14,415,Wunderground v.1.15,2013-05-23 18:00:00,
2013-05-23 13:10:00,50.1,44.2,30.12,North,350,9.0,9.0,80,0.00,,,0.14,332,Wunderground v.1.15,2013-05-23 18:10:00,
2013-05-23 13:15:00,50.2,44.3,30.12,NNW,346,9.0,9.0,80,0.00,,,0.14,413,Wunderground v.1.15,2013-05-23 18:15:00,
2013-05-23 13:25:00,50.3,43.7,30.12,NNE,18,10.0,15.0,78,0.00,,,0.14,501,Wunderground v.1.15,2013-05-23 18:25:00,
2013-05-23 13:35:00,50.7,44.4,30.12,NE,49,10.0,11.0,79,0.00,,,0.14,443,Wunderground v.1.15,2013-05-23 18:35:00,
2013-05-23 13:45:00,51.3,44.3,30.13,ENE,59,9.0,9.0,77,0.00,,,0.14,378,Wunderground v.1.15,2013-05-23 18:45:00,
2013-05-23 13:55:00,51.9,44.6,30.13,NNE,13,9.0,9.0,76,0.00,,,0.14,962,Wunderground v.1.15,2013-05-23 18:55:00,
2013-05-23 14:00:00,52.1,43.7,30.13,NNE,30,9.0,9.0,73,0.00,,,0.14,1049,Wunderground v.1.15,2013-05-23 19:00:00,
2013-05-23 14:10:00,52.5,44.4,30.13,North,11,8.0,8.0,74,0.00,,,0.14,893,Wunderground v.1.15,2013-05-23 19:10:00,
2013-05-23 14:15:00,53.0,44.9,30.13,NE,42,7.0,9.0,74,0.00,,,0.14,1271,Wunderground v.1.15,2013-05-23 19:15:00,
2013-05-23 14:25:00,53.2,43.7,30.13,North,5,12.0,16.0,70,0.00,,,0.14,432,Wunderground v.1.15,2013-05-23 19:25:00,
2013-05-23 14:35:00,53.7,44.5,30.13,NE,47,9.0,12.0,71,0.00,,,0.14,271,Wunderground v.1.15,2013-05-23 19:35:00,
2013-05-23 14:40:00,54.0,44.4,30.13,NNE,22,8.0,8.0,70,0.00,,,0.14,508,Wunderground v.1.15,2013-05-23 19:40:00,
2013-05-23 14:50:00,55.1,44.7,30.13,North,349,8.0,8.0,68,0.00,,,0.14,445,Wunderground v.1.15,2013-05-23 19:50:00,
2013-05-23 15:00:00,55.7,43.7,30.13,North,360,8.0,8.0,64,0.00,,,0.14,283,Wunderground v.1.15,2013-05-23 20:00:00,
2013-05-23 15:05:00,56.0,44.8,30.13,NNW,333,7.0,14.0,66,0.00,,,0.14,1116,Wunderground v.1.15,2013-05-23 20:05:00,
2013-05-23 15:15:00,55.9,44.3,30.14,North,11,8.0,11.0,65,0.00,,,0.14,387,Wunderground v.1.15,2013-05-23 20:15:00,
2013-05-23 15:20:00,55.8,44.2,30.14,North,355,10.0,13.0,65,0.00,,,0.14,438,Wunderground v.1.15,2013-05-23 20:20:00,
2013-05-23 15:25:00,55.4,43.8,30.14,North,11,11.0,13.0,65,0.00,,,0.14,367,Wunderground v.1.15,2013-05-23 20:25:00,
2013-05-23 15:30:00,55.4,43.8,30.14,North,355,11.0,11.0,65,0.00,,,0.14,345,Wunderground v.1.15,2013-05-23 20:30:00,
2013-05-23 15:40:00,55.0,44.6,30.14,NNW,348,11.0,11.0,68,0.00,,,0.14,257,Wunderground v.1.15,2013-05-23 20:40:00,
2013-05-23 15:50:00,54.4,44.8,30.15,NNW,347,11.0,11.0,70,0.00,,,0.14,287,Wunderground v.1.15,2013-05-23 20:50:00,
2013-05-23 15:55:00,54.5,46.0,30.15,NNW,340,12.0,12.0,73,0.00,,,0.14,346,Wunderground v.1.15,2013-05-23 20:55:00,
2013-05-23 16:05:00,54.6,45.8,30.16,NNE,17,9.0,14.0,72,0.00,,,0.14,338,Wunderground v.1.15,2013-05-23 21:05:00,
2013-05-23 16:15:00,55.0,44.6,30.16,North,5,9.0,9.0,68,0.00,,,0.14,751,Wunderground v.1.15,2013-05-23 21:15:00,
2013-05-23 16:25:00,54.9,44.1,30.17,NNE,29,9.0,13.0,67,0.00,,,0.14,279,Wunderground v.1.15,2013-05-23 21:25:00,
2013-05-23 16:30:00,54.9,44.5,30.17,NW,313,10.0,10.0,68,0.00,,,0.14,334,Wunderground v.1.15,2013-05-23 21:30:00,
2013-05-23 16:40:00,55.3,44.9,30.17,North,355,10.0,10.0,68,0.00,,,0.14,413,Wunderground v.1.15,2013-05-23 21:40:00,
2013-05-23 16:50:00,55.5,44.3,30.17,NNW,330,10.0,11.0,66,0.00,,,0.14,765,Wunderground v.1.15,2013-05-23 21:50:00,
2013-05-23 17:00:00,55.5,45.9,30.18,NE,38,5.0,5.0,70,0.00,,,0.14,204,Wunderground v.1.15,2013-05-23 22:00:00,
2013-05-23 17:05:00,54.6,44.6,30.18,NNW,344,3.0,5.0,69,0.00,,,0.14,174,Wunderground v.1.15,2013-05-23 22:05:00,
2013-05-23 17:10:00,55.1,45.9,30.18,NE,34,2.0,2.0,71,0.00,,,0.14,158,Wunderground v.1.15,2013-05-23 22:10:00,
2013-05-23 17:20:00,56.2,45.0,30.18,ESE,117,1.0,2.0,66,0.00,,,0.14,601,Wunderground v.1.15,2013-05-23 22:20:00,
2013-05-23 17:25:00,57.3,46.4,30.18,NE,49,2.0,3.0,67,0.00,,,0.14,592,Wunderground v.1.15,2013-05-23 22:25:00,
2013-05-23 17:35:00,56.9,45.7,30.19,ENE,74,4.0,4.0,66,0.00,,,0.14,568,Wunderground v.1.15,2013-05-23 22:35:00,
2013-05-23 17:40:00,57.0,46.1,30.19,ESE,121,2.0,3.0,67,0.00,,,0.14,517,Wunderground v.1.15,2013-05-23 22:40:00,
2013-05-23 17:50:00,56.2,45.4,30.19,NNE,22,2.0,2.0,67,0.00,,,0.14,524,Wunderground v.1.15,2013-05-23 22:50:00,
2013-05-23 18:00:00,56.8,46.7,30.19,East,86,1.0,1.0,69,0.00,,,0.14,411,Wunderground v.1.15,2013-05-23 23:00:00,
2013-05-23 18:05:00,56.0,45.6,30.20,NE,51,2.0,2.0,68,0.00,,,0.14,183,Wunderground v.1.15,2013-05-23 23:05:00,
2013-05-23 18:15:00,55.9,45.5,30.20,ESE,106,1.0,2.0,68,0.00,,,0.14,304,Wunderground v.1.15,2013-05-23 23:15:00,
2013-05-23 18:20:00,55.7,46.1,30.21,SSE,153,1.0,1.0,70,0.00,,,0.14,334,Wunderground v.1.15,2013-05-23 23:20:00,
2013-05-23 18:30:00,55.6,45.6,30.21,ENE,65,0.0,1.0,69,0.00,,,0.14,297,Wunderground v.1.15,2013-05-23 23:30:00,
2013-05-23 18:40:00,56.0,46.4,30.22,ENE,75,0.0,2.0,70,0.00,,,0.14,243,Wunderground v.1.15,2013-05-23 23:40:00,
2013-05-23 18:50:00,55.7,45.7,30.22,ENE,62,1.0,1.0,69,0.00,,,0.14,206,Wunderground v.1.15,2013-05-23 23:50:00,
2013-05-23 18:55:00,54.7,44.7,30.23,ESE,104,2.0,2.0,69,0.00,,,0.14,183,Wunderground v.1.15,2013-05-23 23:55:00,
2013-05-23 19:05:00,53.7,43.8,30.23,ESE,110,1.0,2.0,69,0.00,,,0.14,142,Wunderground v.1.15,2013-05-24 00:05:00,
2013-05-23 19:15:00,52.6,42.7,30.24,East,97,1.0,1.0,69,0.00,,,0.14,107,Wunderground v.1.15,2013-05-24 00:15:00,
2013-05-23 19:20:00,52.5,43.4,30.24,East,97,0.0,0.0,71,0.00,,,0.14,90,Wunderground v.1.15,2013-05-24 00:20:00,
2013-05-23 19:25:00,52.1,42.6,30.24,ENE,78,1.0,1.0,70,0.00,,,0.14,76,Wunderground v.1.15,2013-05-24 00:25:00,
2013-05-23 19:35:00,51.8,43.1,30.24,NNW,340,1.0,1.0,72,0.00,,,0.14,53,Wunderground v.1.15,2013-05-24 00:35:00,
2013-05-23 19:45:00,50.3,41.6,30.25,NNE,19,1.0,3.0,72,0.00,,,0.14,32,Wunderground v.1.15,2013-05-24 00:45:00,
2013-05-23 19:55:00,49.8,41.5,30.25,NE,50,0.0,1.0,73,0.00,,,0.14,19,Wunderground v.1.15,2013-05-24 00:55:00,
2013-05-23 20:05:00,48.5,40.6,30.25,ENE,57,0.0,0.0,74,0.00,,,0.14,12,Wunderground v.1.15,2013-05-24 01:05:00,
2013-05-23 20:10:00,47.6,40.4,30.25,ENE,57,0.0,0.0,76,0.00,,,0.14,9,Wunderground v.1.15,2013-05-24 01:10:00,
2013-05-23 20:20:00,46.5,39.7,30.25,ENE,70,0.0,0.0,77,0.00,,,0.14,0,Wunderground v.1.15,2013-05-24 01:20:00,
2013-05-23 20:25:00,46.3,40.1,30.26,ENE,71,0.0,0.0,79,0.00,,,0.14,0,Wunderground v.1.15,2013-05-24 01:25:00,
2013-05-23 20:35:00,45.5,40.0,30.26,ENE,71,0.0,0.0,81,0.00,,,0.14,0,Wunderground v.1.15,2013-05-24 01:35:00,
2013-05-23 20:45:00,45.4,40.5,30.26,ENE,71,0.0,0.0,83,0.00,,,0.14,0,Wunderground v.1.15,2013-05-24 01:45:00,
2013-05-23 20:50:00,44.7,38.9,30.26,ENE,71,0.0,0.0,80,0.00,,,0.14,0,Wunderground v.1.15,2013-05-24 01:50:00,
2013-05-23 20:55:00,44.5,39.0,30.27,ENE,71,0.0,0.0,81,0.00,,,0.14,0,Wunderground v.1.15,2013-05-24 01:55:00,
2013-05-23 21:05:00,43.4,38.3,30.27,ENE,71,0.0,0.0,82,0.00,,,0.14,0,Wunderground v.1.15,2013-05-24 02:05:00,
2013-05-23 21:10:00,43.5,38.4,30.27,ENE,73,0.0,0.0,82,0.00,,,0.14,0,Wunderground v.1.15,2013-05-24 02:10:00,
2013-05-23 21:20:00,42.7,37.6,30.27,ENE,73,0.0,0.0,82,0.00,,,0.14,0,Wunderground v.1.15,2013-05-24 02:20:00,
2013-05-23 21:30:00,42.7,37.9,30.28,SE,137,0.0,0.0,83,0.00,,,0.14,0,Wunderground v.1.15,2013-05-24 02:30:00,
2013-05-23 21:40:00,42.1,37.0,30.29,NE,45,0.0,0.0,82,0.00,,,0.14,0,Wunderground v.1.15,2013-05-24 02:40:00,
2013-05-23 21:50:00,41.5,37.0,30.29,ENE,69,0.0,1.0,84,0.00,,,0.14,0,Wunderground v.1.15,2013-05-24 02:50:00,
2013-05-23 22:00:00,41.6,37.4,30.30,ENE,69,0.0,0.0,85,0.00,,,0.14,0,Wunderground v.1.15,2013-05-24 03:00:00,
2013-05-23 22:05:00,41.3,36.8,30.30,ENE,69,0.0,0.0,84,0.00,,,0.14,0,Wunderground v.1.15,2013-05-24 03:05:00,
2013-05-23 22:15:00,40.7,36.8,30.30,ENE,69,0.0,0.0,86,0.00,,,0.14,0,Wunderground v.1.15,2013-05-24 03:15:00,
2013-05-23 22:25:00,40.7,36.5,30.30,ESE,109,0.0,1.0,85,0.00,,,0.14,0,Wunderground v.1.15,2013-05-24 03:25:00,
2013-05-23 22:30:00,40.8,36.3,30.30,ESE,109,0.0,0.0,84,0.00,,,0.14,0,Wunderground v.1.15,2013-05-24 03:30:00,
2013-05-23 22:35:00,40.6,36.4,30.30,East,82,0.0,0.0,85,0.00,,,0.14,0,Wunderground v.1.15,2013-05-24 03:35:00,
2013-05-23 22:45:00,40.5,36.0,30.30,NE,55,0.0,0.0,84,0.00,,,0.14,0,Wunderground v.1.15,2013-05-24 03:45:00,
2013-05-23 22:50:00,40.3,35.8,30.30,ENE,61,0.0,3.0,84,0.00,,,0.14,0,Wunderground v.1.15,2013-05-24 03:50:00,
2013-05-23 22:55:00,40.4,35.9,30.31,East,80,1.0,3.0,84,0.00,,,0.14,0,Wunderground v.1.15,2013-05-24 03:55:00,
2013-05-23 23:05:00,40.4,35.9,30.31,East,84,0.0,1.0,84,0.00,,,0.14,0,Wunderground v.1.15,2013-05-24 04:05:00,
2013-05-23 23:10:00,40.4,35.9,30.31,ENE,58,0.0,1.0,84,0.00,,,0.14,0,Wunderground v.1.15,2013-05-24 04:10:00,
2013-05-23 23:15:00,40.4,35.9,30.31,NE,56,0.0,1.0,84,0.00,,,0.14,0,Wunderground v.1.15,2013-05-24 04:15:00,
2013-05-23 23:20:00,40.2,35.8,30.32,ENE,59,0.0,0.0,84,0.00,,,0.14,0,Wunderground v.1.15,2013-05-24 04:20:00,
2013-05-23 23:30:00,39.8,35.4,30.32,ENE,67,0.0,0.0,84,0.00,,,0.14,0,Wunderground v.1.15,2013-05-24 04:30:00,
2013-05-23 23:35:00,40.0,35.6,30.32,NNE,30,0.0,2.0,84,0.00,,,0.14,0,Wunderground v.1.15,2013-05-24 04:35:00,
2013-05-23 23:45:00,40.0,35.6,30.32,East,85,1.0,1.0,84,0.00,,,0.14,0,Wunderground v.1.15,2013-05-24 04:45:00,
2013-05-23 23:55:00,40.1,35.7,30.33,NNE,24,0.0,1.0,84,0.00,,,0.14,0,Wunderground v.1.15,2013-05-24 04:55:00,